Stratford, Canada
Current Conditions -  °F | °C
As of 2:28 PM on Tuesday 21 Oct 2014 (Local Time) from CYXU Reporting Station
Overcast Overcast  
Wind Chill: 40°   Ceiling: 900
Heat Index: 46°   Visibility: 10mi
Dew Point: 43°   Wind: 16mph
Humidity: 87%   Direction: 350°N
Pressure: 29.95"   Gusts: 24mph
Location:  43.37°N, 80.98°W
Report Text: CYXU 211828Z 35014G21KT 10SM OVC009 08/06 A2995 RMK SF8 CIG RAG SLP145
Loading
Personal Weather Stations






























Interactive Weather Map
Tropical Storm Tracking
New forecast layout! Learn more

10-Day Weather Forecast

Advertisements
Track Severe Weather on mobile